createdAt,value
2022-09-25T00:02:25.384Z,15.53
2022-09-25T00:04:57.246Z,15.58
2022-09-25T00:07:29.218Z,15.59
2022-09-25T00:10:01.076Z,15.59
2022-09-25T00:12:33.033Z,15.58
2022-09-25T00:15:06.026Z,15.57
2022-09-25T00:17:37.880Z,15.57
2022-09-25T00:20:10.238Z,15.59
2022-09-25T00:22:42.472Z,15.60
2022-09-25T00:25:15.528Z,15.63
2022-09-25T00:27:50.248Z,15.66
2022-09-25T00:30:22.197Z,15.69
2022-09-25T00:32:53.974Z,15.69
2022-09-25T00:35:25.802Z,15.71
2022-09-25T00:37:57.632Z,15.72
2022-09-25T00:40:29.572Z,15.73
2022-09-25T00:43:01.409Z,15.72
2022-09-25T00:45:33.176Z,15.73
2022-09-25T00:48:11.465Z,15.72
2022-09-25T00:50:50.330Z,15.71
2022-09-25T00:53:29.217Z,15.72
2022-09-25T00:56:03.139Z,15.71
2022-09-25T00:58:35.581Z,15.71
2022-09-25T01:01:08.195Z,15.71
2022-09-25T01:03:40.815Z,15.69
2022-09-25T01:06:14.789Z,15.69
2022-09-25T01:08:47.201Z,15.67
2022-09-25T01:11:19.035Z,15.65
2022-09-25T01:13:54.054Z,15.65
2022-09-25T01:16:43.771Z,15.63
2022-09-25T01:19:43.408Z,15.64
2022-09-25T01:22:41.082Z,15.64
2022-09-25T01:25:25.180Z,15.62
2022-09-25T01:27:59.707Z,15.61
2022-09-25T01:30:34.181Z,15.61
2022-09-25T01:33:14.777Z,15.62
2022-09-25T01:35:53.227Z,15.61
2022-09-25T01:38:39.539Z,15.60
2022-09-25T01:41:21.771Z,15.59
2022-09-25T01:43:59.497Z,15.59
2022-09-25T01:46:36.854Z,15.59
2022-09-25T01:49:14.052Z,15.58
2022-09-25T01:51:50.312Z,15.59
2022-09-25T01:54:30.615Z,15.58
2022-09-25T01:57:10.229Z,15.59
2022-09-25T01:59:57.021Z,15.59
2022-09-25T02:02:35.167Z,15.60
2022-09-25T02:05:17.539Z,15.58
2022-09-25T02:07:54.832Z,15.59
2022-09-25T02:10:31.984Z,15.60
2022-09-25T02:13:10.000Z,15.60
2022-09-25T02:15:56.807Z,15.61
2022-09-25T02:18:48.417Z,15.64
2022-09-25T02:21:34.908Z,15.64
2022-09-25T02:24:19.080Z,15.63
2022-09-25T02:26:51.113Z,15.63
2022-09-25T02:29:23.353Z,15.63
2022-09-25T02:31:59.790Z,15.62
2022-09-25T02:34:32.688Z,15.62
2022-09-25T02:37:14.930Z,15.62
2022-09-25T02:39:52.826Z,15.64
2022-09-25T02:42:30.333Z,15.64
2022-09-25T02:45:17.824Z,15.64
2022-09-25T02:48:31.095Z,15.63
2022-09-25T02:51:05.946Z,15.62
2022-09-25T02:53:42.888Z,15.60
2022-09-25T02:56:30.102Z,15.60
2022-09-25T02:59:09.000Z,15.60
2022-09-25T03:01:42.497Z,15.59
2022-09-25T03:04:17.306Z,15.59
2022-09-25T03:06:49.598Z,15.56
2022-09-25T03:09:22.337Z,15.56
2022-09-25T03:11:55.087Z,15.55
2022-09-25T03:14:27.216Z,15.55
2022-09-25T03:17:03.651Z,15.55
2022-09-25T03:19:36.147Z,15.54
2022-09-25T03:22:08.289Z,15.54
2022-09-25T03:24:40.296Z,15.53
2022-09-25T03:27:12.154Z,15.52
2022-09-25T03:29:44.180Z,15.52
2022-09-25T03:32:16.133Z,15.52
2022-09-25T03:34:48.361Z,15.51
2022-09-25T03:37:20.291Z,15.54
2022-09-25T03:39:52.886Z,15.54
2022-09-25T03:42:28.270Z,15.56
2022-09-25T03:45:00.258Z,15.56
2022-09-25T03:47:32.238Z,15.57
2022-09-25T03:50:04.773Z,15.57
2022-09-25T03:52:36.804Z,15.58
2022-09-25T03:55:08.812Z,15.61
2022-09-25T03:57:41.600Z,15.62
2022-09-25T04:00:14.718Z,15.63
2022-09-25T04:02:46.876Z,15.64
2022-09-25T04:05:20.109Z,15.62
2022-09-25T04:07:55.090Z,15.60
2022-09-25T04:10:27.766Z,15.59
2022-09-25T04:12:59.817Z,15.58
2022-09-25T04:15:32.293Z,15.55
2022-09-25T04:18:06.265Z,15.55
2022-09-25T04:20:39.335Z,15.54
2022-09-25T04:23:11.331Z,15.52
2022-09-25T04:25:45.808Z,15.52
2022-09-25T04:28:19.510Z,15.50
2022-09-25T04:30:51.752Z,15.51
2022-09-25T04:33:42.584Z,15.49
2022-09-25T04:36:19.048Z,15.46
2022-09-25T04:38:51.406Z,15.45
2022-09-25T04:41:23.264Z,15.44
2022-09-25T04:43:55.931Z,15.42
2022-09-25T04:46:27.872Z,15.42
2022-09-25T04:48:59.866Z,15.41
2022-09-25T04:51:31.826Z,15.41
2022-09-25T04:54:04.247Z,15.40
2022-09-25T04:56:36.100Z,15.39
2022-09-25T04:59:07.961Z,15.39
2022-09-25T05:01:39.929Z,15.38
2022-09-25T05:04:12.183Z,15.37
2022-09-25T05:06:44.221Z,15.38
2022-09-25T05:09:17.836Z,15.38
2022-09-25T05:11:49.726Z,15.38
2022-09-25T05:14:22.718Z,15.38
2022-09-25T05:16:54.598Z,15.37
2022-09-25T05:19:27.996Z,15.37
2022-09-25T05:21:59.820Z,15.37
2022-09-25T05:24:31.683Z,15.37
2022-09-25T05:27:04.482Z,15.38
2022-09-25T05:29:36.735Z,15.38
2022-09-25T05:32:09.383Z,15.37
2022-09-25T05:34:41.247Z,15.37
2022-09-25T05:37:13.265Z,15.37
2022-09-25T05:39:45.176Z,15.37
2022-09-25T05:42:19.329Z,15.37
2022-09-25T05:44:51.563Z,15.37
2022-09-25T05:47:25.270Z,15.38
2022-09-25T05:49:57.204Z,15.38
2022-09-25T05:52:29.024Z,15.39
2022-09-25T05:55:03.227Z,15.40
2022-09-25T05:57:36.468Z,15.41
2022-09-25T06:00:13.912Z,15.40
2022-09-25T06:02:45.936Z,15.39
2022-09-25T06:05:17.932Z,15.40
2022-09-25T06:07:54.134Z,15.39
2022-09-25T06:10:26.823Z,15.39
2022-09-25T06:13:00.036Z,15.41
2022-09-25T06:15:41.321Z,15.42
2022-09-25T06:18:13.355Z,15.42
2022-09-25T06:20:45.212Z,15.42
2022-09-25T06:23:17.985Z,15.44
2022-09-25T06:25:49.923Z,15.43
2022-09-25T06:28:21.798Z,15.44
2022-09-25T06:30:53.684Z,15.43
2022-09-25T06:33:25.839Z,15.45
2022-09-25T06:35:58.064Z,15.47
2022-09-25T06:38:29.986Z,15.48
2022-09-25T06:41:02.148Z,15.48
2022-09-25T06:43:34.512Z,15.50
2022-09-25T06:46:06.416Z,15.52
2022-09-25T06:48:38.627Z,15.54
2022-09-25T06:51:10.561Z,15.55
2022-09-25T06:53:42.487Z,15.58
2022-09-25T06:56:14.279Z,15.60
2022-09-25T06:58:46.163Z,15.62
2022-09-25T07:01:19.283Z,15.62
2022-09-25T07:03:51.256Z,15.64
2022-09-25T07:06:26.595Z,15.63
2022-09-25T07:08:59.232Z,15.65
2022-09-25T07:11:34.002Z,15.66
2022-09-25T07:14:05.920Z,15.66
2022-09-25T07:16:37.784Z,15.69
2022-09-25T07:19:09.665Z,15.72
2022-09-25T07:21:41.773Z,15.73
2022-09-25T07:24:13.596Z,15.75
2022-09-25T07:26:45.539Z,15.77
2022-09-25T07:29:17.493Z,15.78
2022-09-25T07:31:49.288Z,15.82
2022-09-25T07:34:21.146Z,15.83
2022-09-25T07:36:54.934Z,15.85
2022-09-25T07:39:26.912Z,15.86
2022-09-25T07:41:58.850Z,15.86
2022-09-25T07:44:37.522Z,15.87
2022-09-25T07:47:13.459Z,15.88
2022-09-25T07:49:46.379Z,15.88
2022-09-25T07:52:18.907Z,15.87
2022-09-25T07:54:50.945Z,15.86
2022-09-25T07:57:22.847Z,15.83
2022-09-25T07:59:54.806Z,15.78
2022-09-25T08:02:26.960Z,15.77
2022-09-25T08:04:59.348Z,15.76
2022-09-25T08:07:31.277Z,15.72
2022-09-25T08:10:03.548Z,15.71
2022-09-25T08:12:35.586Z,15.70
2022-09-25T08:15:07.861Z,15.67
2022-09-25T08:17:39.808Z,15.68
2022-09-25T08:20:12.238Z,15.67
2022-09-25T08:22:47.584Z,15.68
2022-09-25T08:25:19.438Z,15.66
2022-09-25T08:27:51.451Z,15.66
2022-09-25T08:30:23.297Z,15.67
2022-09-25T08:32:55.305Z,15.68
2022-09-25T08:35:28.021Z,15.70
2022-09-25T08:37:59.894Z,15.70
2022-09-25T08:40:32.288Z,15.72
2022-09-25T08:43:08.168Z,15.72
2022-09-25T08:46:00.045Z,15.70
2022-09-25T08:48:53.221Z,15.71
2022-09-25T08:51:27.301Z,15.70
2022-09-25T08:53:59.957Z,15.72
2022-09-25T08:56:32.714Z,15.72
2022-09-25T08:59:26.209Z,15.72
2022-09-25T09:02:20.524Z,15.73
2022-09-25T09:04:56.429Z,15.74
2022-09-25T09:07:55.901Z,15.74
2022-09-25T09:10:48.615Z,15.75
2022-09-25T09:13:41.693Z,15.75
2022-09-25T09:16:21.588Z,15.73
2022-09-25T09:18:54.970Z,15.71
2022-09-25T09:21:39.041Z,15.72
2022-09-25T09:24:22.766Z,15.71
2022-09-25T09:27:14.669Z,15.68
2022-09-25T09:30:08.330Z,15.67
2022-09-25T09:33:01.645Z,15.68
2022-09-25T09:35:59.162Z,15.69
2022-09-25T09:39:18.607Z,15.70
2022-09-25T09:42:09.157Z,15.71
2022-09-25T09:45:18.420Z,15.74
2022-09-25T09:48:12.528Z,15.77
2022-09-25T09:50:52.652Z,15.78
2022-09-25T09:53:28.275Z,15.81
2022-09-25T09:56:06.393Z,15.82
2022-09-25T09:58:48.315Z,15.83
2022-09-25T10:04:23.872Z,15.81
2022-09-25T10:07:03.958Z,15.78
2022-09-25T10:09:37.342Z,15.75
2022-09-25T10:12:15.347Z,15.74
2022-09-25T10:14:47.445Z,15.76
2022-09-25T10:17:19.965Z,15.78
2022-09-25T10:19:55.461Z,15.79
2022-09-25T10:22:30.508Z,15.82
2022-09-25T10:25:02.544Z,15.83
2022-09-25T10:27:40.524Z,15.84
2022-09-25T10:30:21.729Z,15.87
2022-09-25T10:33:01.135Z,15.91
2022-09-25T10:35:38.551Z,15.93
2022-09-25T10:38:23.557Z,15.97
2022-09-25T10:41:12.131Z,15.98
2022-09-25T10:44:00.181Z,16.00
2022-09-25T10:46:52.355Z,16.01
2022-09-25T10:49:44.659Z,15.99
2022-09-25T10:52:21.229Z,16.00
2022-09-25T10:55:14.581Z,16.00
2022-09-25T10:57:47.383Z,15.99
2022-09-25T11:00:28.291Z,15.98
2022-09-25T11:03:05.655Z,15.97
2022-09-25T11:05:38.419Z,15.91
2022-09-25T11:08:15.335Z,15.89
2022-09-25T11:10:58.273Z,15.85
2022-09-25T11:13:46.294Z,15.81
2022-09-25T11:16:19.616Z,15.79
2022-09-25T11:19:05.645Z,15.79
2022-09-25T11:22:00.677Z,15.83
2022-09-25T11:24:46.270Z,15.86
2022-09-25T11:27:22.970Z,15.88
2022-09-25T11:29:58.414Z,15.91
2022-09-25T11:32:48.951Z,15.95
2022-09-25T11:35:45.557Z,15.97
2022-09-25T11:38:53.545Z,15.96
2022-09-25T11:41:43.874Z,15.87
2022-09-25T11:44:43.822Z,15.82
2022-09-25T11:47:26.694Z,15.77
2022-09-25T11:49:59.119Z,15.76
2022-09-25T11:52:33.590Z,15.77
2022-09-25T11:55:27.301Z,15.79
2022-09-25T11:58:41.209Z,15.75
2022-09-25T12:01:23.543Z,15.68
2022-09-25T12:04:05.984Z,15.63
2022-09-25T12:07:14.495Z,15.60
2022-09-25T12:09:48.991Z,15.61
2022-09-25T12:12:43.336Z,15.63
2022-09-25T12:15:56.525Z,15.70
2022-09-25T12:18:34.149Z,15.76
2022-09-25T12:21:11.829Z,15.82
2022-09-25T12:24:01.830Z,15.87
2022-09-25T12:26:58.206Z,15.94
2022-09-25T12:30:05.336Z,16.03
2022-09-25T12:33:00.034Z,16.08
2022-09-25T12:36:03.415Z,16.10
2022-09-25T12:38:44.358Z,16.12
2022-09-25T12:41:34.033Z,16.12
2022-09-25T12:44:26.595Z,16.15
2022-09-25T12:47:40.468Z,16.20
2022-09-25T12:50:15.010Z,16.22
2022-09-25T12:52:55.017Z,16.25
2022-09-25T12:55:32.471Z,16.26
2022-09-25T12:58:18.361Z,16.27
2022-09-25T13:00:58.047Z,16.30
2022-09-25T13:03:53.502Z,16.29
2022-09-25T13:06:34.447Z,16.32
2022-09-25T13:09:24.375Z,16.34
2022-09-25T13:12:08.396Z,16.34
2022-09-25T13:14:46.447Z,16.34
2022-09-25T13:17:22.970Z,16.33
2022-09-25T13:19:56.008Z,16.39
2022-09-25T13:22:27.856Z,16.45
2022-09-25T13:25:18.517Z,16.48
2022-09-25T13:27:54.118Z,16.51
2022-09-25T13:30:28.703Z,16.52
2022-09-25T13:33:03.249Z,16.55
2022-09-25T13:35:35.101Z,16.57
2022-09-25T13:38:37.834Z,16.57
2022-09-25T13:41:13.596Z,16.55
2022-09-25T13:43:46.872Z,16.58
2022-09-25T13:46:23.152Z,16.59
2022-09-25T13:49:33.987Z,16.62
2022-09-25T13:52:31.247Z,16.62
2022-09-25T13:55:21.215Z,16.62
2022-09-25T13:57:58.795Z,16.63
2022-09-25T14:00:36.194Z,16.61
2022-09-25T14:03:30.305Z,16.60
2022-09-25T14:06:02.809Z,16.59
2022-09-25T14:08:34.823Z,16.56
2022-09-25T14:11:08.991Z,16.55
2022-09-25T14:13:45.740Z,16.57
2022-09-25T14:16:23.310Z,16.56
2022-09-25T14:18:57.356Z,16.58
2022-09-25T14:21:29.916Z,16.59
2022-09-25T14:24:23.520Z,16.62
2022-09-25T14:27:01.219Z,16.63
2022-09-25T14:29:39.730Z,16.65
2022-09-25T14:32:53.317Z,16.66
2022-09-25T14:35:32.276Z,16.65
2022-09-25T14:38:38.270Z,16.59
2022-09-25T14:41:44.096Z,16.60
2022-09-25T14:44:31.226Z,16.63
2022-09-25T14:47:03.724Z,16.69
2022-09-25T14:49:39.838Z,16.78
2022-09-25T14:52:15.769Z,16.90
2022-09-25T14:54:48.272Z,17.02
2022-09-25T14:57:25.678Z,17.10
2022-09-25T15:00:01.903Z,17.13
2022-09-25T15:02:41.790Z,17.09
2022-09-25T15:05:34.247Z,17.11
2022-09-25T15:08:42.728Z,17.06
2022-09-25T15:11:17.448Z,17.09
2022-09-25T15:13:49.344Z,17.10
2022-09-25T15:16:43.522Z,17.14
2022-09-25T15:19:21.891Z,17.15
2022-09-25T15:21:54.161Z,17.14
2022-09-25T15:24:29.717Z,17.09
2022-09-25T15:27:03.924Z,17.06
2022-09-25T15:29:37.649Z,17.05
2022-09-25T15:32:18.285Z,17.03
2022-09-25T15:34:50.258Z,17.04
2022-09-25T15:37:31.018Z,17.04
2022-09-25T15:40:20.371Z,17.08
2022-09-25T15:42:52.569Z,17.06
2022-09-25T15:45:43.789Z,17.08
2022-09-25T15:48:33.004Z,17.05
2022-09-25T15:51:14.133Z,17.02
2022-09-25T15:53:53.415Z,16.97
2022-09-25T15:56:26.711Z,16.95
2022-09-25T15:59:04.791Z,16.90
2022-09-25T16:01:55.815Z,16.89
2022-09-25T16:04:40.439Z,16.86
2022-09-25T16:07:34.033Z,16.82
2022-09-25T16:10:29.924Z,16.78
2022-09-25T16:13:02.655Z,16.73
2022-09-25T16:15:45.389Z,16.68
2022-09-25T16:18:26.432Z,16.62
2022-09-25T16:21:26.868Z,16.56
2022-09-25T16:24:01.323Z,16.47
2022-09-25T16:26:43.361Z,16.38
2022-09-25T16:29:20.225Z,16.33
2022-09-25T16:31:53.593Z,16.28
2022-09-25T16:34:26.199Z,16.18
2022-09-25T16:37:00.927Z,16.11
2022-09-25T16:39:41.723Z,16.06
2022-09-25T16:42:27.411Z,16.01
2022-09-25T16:45:15.981Z,15.99
2022-09-25T16:47:49.566Z,15.92
2022-09-25T16:50:22.230Z,15.88
2022-09-25T16:52:54.568Z,15.86
2022-09-25T16:55:29.345Z,15.84
2022-09-25T16:58:03.472Z,15.79
2022-09-25T17:00:35.492Z,15.77
2022-09-25T17:03:09.963Z,15.74
2022-09-25T17:05:42.037Z,15.70
2022-09-25T17:08:18.079Z,15.65
2022-09-25T17:10:51.717Z,15.61
2022-09-25T17:13:27.965Z,15.57
2022-09-25T17:15:59.931Z,15.53
2022-09-25T17:18:31.846Z,15.44
2022-09-25T17:21:10.473Z,15.42
2022-09-25T17:23:43.257Z,15.39
2022-09-25T17:26:22.666Z,15.32
2022-09-25T17:28:54.613Z,15.28
2022-09-25T17:31:26.819Z,15.23
2022-09-25T17:33:58.902Z,15.20
2022-09-25T17:36:30.907Z,15.17
2022-09-25T17:39:02.995Z,15.14
2022-09-25T17:41:36.960Z,15.12
2022-09-25T17:44:13.046Z,15.09
2022-09-25T17:46:44.996Z,15.08
2022-09-25T17:49:17.818Z,15.04
2022-09-25T17:51:50.037Z,15.02
2022-09-25T17:54:22.022Z,14.99
2022-09-25T17:56:53.985Z,14.95
2022-09-25T17:59:25.879Z,14.92
2022-09-25T18:01:59.624Z,14.91
2022-09-25T18:04:31.687Z,14.89
2022-09-25T18:07:03.924Z,14.88
2022-09-25T18:09:35.829Z,14.87
2022-09-25T18:12:08.412Z,14.87
2022-09-25T18:14:40.315Z,14.84
2022-09-25T18:17:14.936Z,14.82
2022-09-25T18:20:05.719Z,14.81
2022-09-25T18:22:38.498Z,14.79
2022-09-25T18:25:10.752Z,14.77
2022-09-25T18:27:44.037Z,14.74
2022-09-25T18:30:21.847Z,14.72
2022-09-25T18:32:54.090Z,14.69
2022-09-25T18:35:26.117Z,14.65
2022-09-25T18:37:59.204Z,14.63
2022-09-25T18:40:31.353Z,14.58
2022-09-25T18:43:03.504Z,14.57
2022-09-25T18:45:35.775Z,14.52
2022-09-25T18:48:07.709Z,14.49
2022-09-25T18:50:41.756Z,14.48
2022-09-25T18:53:14.400Z,14.47
2022-09-25T18:55:46.247Z,14.44
2022-09-25T18:58:18.976Z,14.44
2022-09-25T19:00:51.289Z,14.43
2022-09-25T19:03:23.251Z,14.40
2022-09-25T19:05:59.939Z,14.32
2022-09-25T19:08:32.760Z,14.28
2022-09-25T19:11:12.383Z,14.22
2022-09-25T19:13:44.287Z,14.20
2022-09-25T19:16:17.839Z,14.17
2022-09-25T19:18:52.614Z,14.14
2022-09-25T19:21:26.830Z,14.10
2022-09-25T19:23:58.805Z,14.08
2022-09-25T19:26:31.020Z,14.06
2022-09-25T19:29:03.087Z,14.04
2022-09-25T19:31:35.550Z,14.01
2022-09-25T19:34:07.578Z,13.99
2022-09-25T19:36:39.623Z,13.98
2022-09-25T19:39:11.698Z,13.96
2022-09-25T19:41:44.755Z,13.94
2022-09-25T19:44:17.772Z,13.93
2022-09-25T19:46:50.665Z,13.91
2022-09-25T19:49:22.919Z,13.90
2022-09-25T19:51:54.787Z,13.91
2022-09-25T19:54:27.866Z,13.89
2022-09-25T19:57:00.252Z,13.87
2022-09-25T19:59:32.250Z,13.84
2022-09-25T20:02:04.293Z,13.82
2022-09-25T20:04:36.808Z,13.80
2022-09-25T20:07:08.900Z,13.78
2022-09-25T20:09:41.454Z,13.76
2022-09-25T20:12:13.288Z,13.75
2022-09-25T20:14:45.085Z,13.73
2022-09-25T20:17:16.838Z,13.70
2022-09-25T20:19:48.653Z,13.70
2022-09-25T20:22:20.460Z,13.67
2022-09-25T20:24:52.275Z,13.66
2022-09-25T20:27:25.784Z,13.62
2022-09-25T20:29:57.761Z,13.58
2022-09-25T20:32:29.507Z,13.54
2022-09-25T20:35:01.369Z,13.50
2022-09-25T20:37:33.269Z,13.48
2022-09-25T20:40:06.413Z,13.47
2022-09-25T20:42:38.211Z,13.46
2022-09-25T20:45:10.609Z,13.45
2022-09-25T20:47:46.248Z,13.45
2022-09-25T20:50:18.328Z,13.42
2022-09-25T20:52:50.299Z,13.41
2022-09-25T20:55:22.205Z,13.41
2022-09-25T20:57:54.028Z,13.40
2022-09-25T21:00:25.947Z,13.40
2022-09-25T21:02:58.490Z,13.40
2022-09-25T21:05:30.478Z,13.40
2022-09-25T21:08:02.440Z,13.38
2022-09-25T21:10:36.204Z,13.38
2022-09-25T21:13:08.083Z,13.35
2022-09-25T21:15:39.988Z,13.35
2022-09-25T21:18:11.884Z,13.33
2022-09-25T21:20:43.674Z,13.33
2022-09-25T21:23:15.516Z,13.32
2022-09-25T21:25:47.357Z,13.29
2022-09-25T21:28:19.693Z,13.26
2022-09-25T21:30:51.736Z,13.23
2022-09-25T21:33:23.677Z,13.23
2022-09-25T21:35:55.414Z,13.20
2022-09-25T21:38:27.287Z,13.19
2022-09-25T21:41:01.916Z,13.18
2022-09-25T21:43:35.265Z,13.17
2022-09-25T21:46:10.667Z,13.16
2022-09-25T21:48:48.214Z,13.14
2022-09-25T21:51:21.618Z,13.12
2022-09-25T21:53:54.601Z,13.12
2022-09-25T21:56:27.903Z,13.10
2022-09-25T21:59:08.161Z,13.08
2022-09-25T22:01:40.589Z,13.06
2022-09-25T22:04:13.667Z,13.05
2022-09-25T22:06:47.355Z,13.04
2022-09-25T22:09:21.232Z,13.04
2022-09-25T22:11:53.048Z,13.05
2022-09-25T22:14:25.087Z,13.01
2022-09-25T22:16:56.952Z,12.99
2022-09-25T22:19:29.685Z,12.97
2022-09-25T22:22:01.847Z,12.94
2022-09-25T22:24:33.643Z,12.91
2022-09-25T22:27:05.477Z,12.85
2022-09-25T22:29:37.392Z,12.83
2022-09-25T22:32:09.213Z,12.83
2022-09-25T22:34:41.054Z,12.83
2022-09-25T22:37:12.897Z,12.81
2022-09-25T22:39:44.775Z,12.81
2022-09-25T22:42:16.569Z,12.79
2022-09-25T22:44:48.312Z,12.80
2022-09-25T22:47:20.161Z,12.77
2022-09-25T22:49:51.947Z,12.76
2022-09-25T22:52:23.874Z,12.74
2022-09-25T22:54:55.659Z,12.73
2022-09-25T22:57:28.052Z,12.70
2022-09-25T22:59:59.891Z,12.71
2022-09-25T23:02:31.691Z,12.68
2022-09-25T23:05:06.561Z,12.68
2022-09-25T23:07:38.791Z,12.68
2022-09-25T23:10:10.813Z,12.68
2022-09-25T23:12:42.572Z,12.69
2022-09-25T23:15:14.391Z,12.69
2022-09-25T23:17:46.394Z,12.69
2022-09-25T23:20:18.523Z,12.69
2022-09-25T23:22:50.455Z,12.69
2022-09-25T23:25:23.446Z,12.68
2022-09-25T23:27:55.210Z,12.69
2022-09-25T23:30:27.721Z,12.68
2022-09-25T23:33:00.074Z,12.68
2022-09-25T23:35:34.405Z,12.68
2022-09-25T23:38:06.349Z,12.69
2022-09-25T23:40:38.167Z,12.72
2022-09-25T23:43:10.106Z,12.77
2022-09-25T23:45:42.126Z,12.79
2022-09-25T23:48:16.069Z,12.80
2022-09-25T23:50:51.124Z,12.81
2022-09-25T23:53:22.957Z,12.81
2022-09-25T23:55:54.883Z,12.81
2022-09-25T23:58:28.140Z,12.81
